This is the latest recevied weather packets stored in our database for station/object DB0ROB-10. If no packets are shown the sender has not sent any weather packets the latest 10 day(s).
| Time | Temp. | Humidity | Pressure | Rain* | Wind** | Luminosity | Snow |
|---|---|---|---|---|---|---|---|
| 1778247115 | 18.33° C | 43% | 1015.9 hPa | - | - | - | - |
| 1778246215 | 18.33° C | 44% | 1016 hPa | - | - | - | - |
| 1778245314 | 16.67° C | 50% | 1016 hPa | - | - | - | - |
| 1778244414 | 16.11° C | 52% | 1016.1 hPa | - | - | - | - |
| 1778243513 | 17.22° C | 48% | 1016.1 hPa | - | - | - | - |
| 1778242612 | 15° C | 55% | 1016.1 hPa | - | - | - | - |
| 1778241712 | 16.67° C | 48% | 1016 hPa | - | - | - | - |
| 1778240812 | 15.56° C | 55% | 1016.1 hPa | - | - | - | - |
| 1778239911 | 18.33° C | 46% | 1016.2 hPa | - | - | - | - |
| 1778239011 | 14.44° C | 58% | 1016.4 hPa | - | - | - | - |
| 1778238111 | 15° C | 57% | 1016.4 hPa | - | - | - | - |
| 1778237210 | 15° C | 58% | 1016.5 hPa | - | - | - | - |
| 1778236309 | 15° C | 56% | 1016.5 hPa | - | - | - | - |
| 1778235409 | 13.33° C | 62% | 1016.7 hPa | - | - | - | - |
| 1778234508 | 13.89° C | 60% | 1016.6 hPa | - | - | - | - |
| 1778233608 | 15.56° C | 56% | 1016.6 hPa | - | - | - | - |
| 1778232708 | 15.56° C | 55% | 1016.5 hPa | - | - | - | - |
| 1778231808 | 15.56° C | 55% | 1016.6 hPa | - | - | - | - |
| 1778230907 | 15.56° C | 55% | 1016.6 hPa | - | - | - | - |
| 1778230007 | 14.44° C | 59% | 1016.5 hPa | - | - | - | - |
| 1778229107 | 14.44° C | 57% | 1016.5 hPa | - | - | - | - |
| 1778228207 | 16.11° C | 53% | 1016.3 hPa | - | - | - | - |
| 1778227306 | 15° C | 56% | 1016.3 hPa | - | - | - | - |
| 1778226411 | 15.56° C | 53% | 1016.2 hPa | - | - | - | - |
| 1778225511 | 13.89° C | 57% | 1016.2 hPa | - | - | - | - |
* Rain since midnight (hover to see other rain measurements)
** Current wind speed in m/s (hover to see current wind gust speed)